Alma Center, WI

5:39 AM CDT on July 28, 2014 (GMT -0500)
Black River Falls Area (KBCK) Elev 837 ft | 44.25 °N, 90.86 °W | Change Station

Current weather conditions updated 4 minutes ago

Clear
Clear
44 °F
Feels Like 44 °F
N
0
Wind Variable Wind from North

Today is forecast to be nearly the same temperature as yesterday.

Today
High -- | Low -- °F
--% Chance of Precip.
Yesterday
High -- | Low -- °F
Precip. -- in
5:46 AM 8:33 PM
New Moon, 2% visible
Pressure 30.13 in
Visibility 10.0 miles
Clouds Clear
Dew Point 44 °F
Humidity 100%
Rainfall 0.00 in
Snow Depth Not available.
UV 0 out of 12
Pollen 6.30 out of 12
Air Quality Not available.
Flu Activity Not available.
METAR KBCK 281035Z AUTO 00000KT 10SM CLR 07/07 A3013 RMK AO2 T00650065

More Conditions Fewer Conditions

Pressure 30.13 in
Visibility 10.0 miles
Clouds Clear
Dew Point 44 °F
Humidity 100%
Rainfall 0.00 in
Snow Depth Not available.
UV 0 out of 12
Pollen 6.30 out of 12
Air Quality Not available.
Flu Activity Not available.
METAR KBCK 281035Z AUTO 00000KT 10SM CLR 07/07 A3013 RMK AO2 T00650065

More Conditions Fewer Conditions

10-Day Weather Forecast

Almanac

Astronomy

Jul. 28, 2014 Rise Set
Actual Time 5:46 AM CDT 8:33 PM CDT
Civil Twilight 5:12 AM CDT 9:07 PM CDT
Nautical Twilight 4:29 AM CDT 9:49 PM CDT
Astronomical Twilight 3:39 AM CDT 10:39 PM CDT
Moon 7:34 AM CDT 9:07 PM CDT
Length of Visible Light 15h 54m
Length of Day
14h 47m
Tomorrow will be 2m 14s shorter.
New Moon, 2% of the Moon is Illuminated
Today
New Moon
Aug 3
First Quarter
Aug 10
Full
Aug 17
Last Quarter
Aug 25
New

Today's Extremes

State Highs State Lows

Community

WunderPhotos

Upload Photos

1,738,295 photos uploaded!

Nearby

Snow Depth

Station Depth Elevation
No new snow has been reported.

Earthquake Activity

City Distance Mag. Time & Date
No recent earthquake activity has been reported nearby.
Minimum magnitude displayed is 2.5.

Coastal Water Temperatures

Place Temperature
No Stations Reporting

Nearby Weather Stations

Station Location Temp. Dew Point Humidity Wind Precip. Elev Updated Type
Osseo, WI 51.5 °F 49 °F 92% North  at  0.0 mph 0.00 in / hr 997 ft 5:38 AM CDT Normal

Show More Stations Show Fewer Stations